createdAt,value
2018-03-19T00:02:20.630Z,-0.60
2018-03-19T00:04:48.196Z,-0.60
2018-03-19T00:07:15.751Z,-0.60
2018-03-19T00:09:43.301Z,-0.60
2018-03-19T00:12:10.979Z,-0.60
2018-03-19T00:14:38.542Z,-0.60
2018-03-19T00:17:06.211Z,-0.60
2018-03-19T00:19:33.845Z,-0.60
2018-03-19T00:22:01.398Z,-0.60
2018-03-19T00:24:28.951Z,-0.60
2018-03-19T00:26:56.507Z,-0.60
2018-03-19T00:29:24.063Z,-0.70
2018-03-19T00:31:51.675Z,-0.60
2018-03-19T00:34:19.334Z,-0.70
2018-03-19T00:36:46.986Z,-0.60
2018-03-19T00:39:14.538Z,-0.70
2018-03-19T00:41:42.095Z,-0.70
2018-03-19T00:44:09.707Z,-0.70
2018-03-19T00:46:38.055Z,-0.70
2018-03-19T00:49:05.726Z,-0.70
2018-03-19T00:51:33.374Z,-0.80
2018-03-19T00:54:00.941Z,-0.80
2018-03-19T00:56:28.539Z,-0.80
2018-03-19T00:58:56.103Z,-0.80
2018-03-19T01:01:24.442Z,-0.80
2018-03-19T01:03:52.020Z,-0.90
2018-03-19T01:06:19.571Z,-0.90
2018-03-19T01:08:47.131Z,-0.90
2018-03-19T01:11:15.718Z,-0.90
2018-03-19T01:13:43.374Z,-0.90
2018-03-19T01:16:10.931Z,-0.90
2018-03-19T01:18:38.491Z,-0.90
2018-03-19T01:21:06.032Z,-0.90
2018-03-19T01:23:33.622Z,-0.90
2018-03-19T01:26:01.209Z,-1.00
2018-03-19T01:28:28.759Z,-1.00
2018-03-19T01:30:56.402Z,-1.00
2018-03-19T01:33:24.059Z,-1.00
2018-03-19T01:35:51.658Z,-1.00
2018-03-19T01:38:19.199Z,-1.00
2018-03-19T01:40:46.761Z,-1.00
2018-03-19T01:43:14.410Z,-1.10
2018-03-19T01:45:41.968Z,-1.10
2018-03-19T01:48:09.544Z,-1.00
2018-03-19T01:50:37.199Z,-1.10
2018-03-19T01:53:04.756Z,-1.10
2018-03-19T01:55:32.332Z,-1.10
2018-03-19T01:57:59.991Z,-1.10
2018-03-19T02:00:27.559Z,-1.10
2018-03-19T02:02:55.149Z,-1.10
2018-03-19T02:05:23.460Z,-1.10
2018-03-19T02:07:51.017Z,-1.10
2018-03-19T02:10:18.581Z,-1.10
2018-03-19T02:12:46.142Z,-1.20
2018-03-19T02:15:13.724Z,-1.10
2018-03-19T02:17:41.399Z,-1.10
2018-03-19T02:20:09.763Z,-1.00
2018-03-19T02:22:37.297Z,-1.10
2018-03-19T02:25:04.862Z,-1.00
2018-03-19T02:27:32.415Z,-1.00
2018-03-19T02:30:00.020Z,-0.90
2018-03-19T02:32:27.764Z,-1.00
2018-03-19T02:34:55.335Z,-1.00
2018-03-19T02:37:22.998Z,-0.90
2018-03-19T02:39:50.662Z,-0.90
2018-03-19T02:42:18.216Z,-0.90
2018-03-19T02:44:45.870Z,-0.90
2018-03-19T02:47:13.474Z,-0.90
2018-03-19T02:49:41.027Z,-0.90
2018-03-19T02:52:08.580Z,-0.90
2018-03-19T02:54:36.154Z,-0.90
2018-03-19T02:57:03.877Z,-0.90
2018-03-19T02:59:31.431Z,-0.90
2018-03-19T03:01:59.002Z,-0.90
2018-03-19T03:04:26.580Z,-0.90
2018-03-19T03:06:54.248Z,-0.90
2018-03-19T03:09:21.910Z,-0.90
2018-03-19T03:11:49.568Z,-0.90
2018-03-19T03:14:17.114Z,-0.90
2018-03-19T03:16:44.791Z,-1.00
2018-03-19T03:19:12.344Z,-1.00
2018-03-19T03:21:39.925Z,-1.10
2018-03-19T03:24:07.580Z,-1.10
2018-03-19T03:26:35.130Z,-1.20
2018-03-19T03:29:02.702Z,-1.20
2018-03-19T03:31:30.364Z,-1.30
2018-03-19T03:33:57.921Z,-1.40
2018-03-19T03:36:25.475Z,-1.40
2018-03-19T03:38:53.161Z,-1.40
2018-03-19T03:41:22.259Z,-1.40
2018-03-19T03:43:51.320Z,-1.40
2018-03-19T03:46:18.902Z,-1.40
2018-03-19T03:48:46.463Z,-1.40
2018-03-19T03:51:14.131Z,-1.40
2018-03-19T03:53:41.779Z,-1.40
2018-03-19T03:56:09.354Z,-1.30
2018-03-19T03:58:36.911Z,-1.40
2018-03-19T04:01:04.475Z,-1.40
2018-03-19T04:03:32.139Z,-1.40
2018-03-19T04:05:59.688Z,-1.40
2018-03-19T04:08:27.255Z,-1.40
2018-03-19T04:10:54.816Z,-1.40
2018-03-19T04:13:22.476Z,-1.40
2018-03-19T04:15:50.144Z,-1.30
2018-03-19T04:18:17.698Z,-1.40
2018-03-19T04:20:45.256Z,-1.40
2018-03-19T04:23:12.927Z,-1.40
2018-03-19T04:25:40.489Z,-1.40
2018-03-19T04:28:08.048Z,-1.40
2018-03-19T04:30:35.612Z,-1.40
2018-03-19T04:33:03.277Z,-1.40
2018-03-19T04:35:30.829Z,-1.40
2018-03-19T04:37:58.424Z,-1.40
2018-03-19T04:40:25.970Z,-1.40
2018-03-19T04:42:53.610Z,-1.50
2018-03-19T04:45:21.196Z,-1.50
2018-03-19T04:47:48.852Z,-1.40
2018-03-19T04:50:16.403Z,-1.50
2018-03-19T04:52:44.092Z,-1.50
2018-03-19T04:55:11.708Z,-1.50
2018-03-19T04:57:39.259Z,-1.50
2018-03-19T05:00:06.843Z,-1.50
2018-03-19T05:02:34.399Z,-1.50
2018-03-19T05:05:01.955Z,-1.50
2018-03-19T05:07:29.638Z,-1.50
2018-03-19T05:09:57.279Z,-1.50
2018-03-19T05:12:24.868Z,-1.50
2018-03-19T05:14:52.440Z,-1.50
2018-03-19T05:17:20.000Z,-1.50
2018-03-19T05:19:47.653Z,-1.50
2018-03-19T05:22:15.306Z,-1.60
2018-03-19T05:24:42.858Z,-1.60
2018-03-19T05:27:10.422Z,-1.60
2018-03-19T05:29:37.997Z,-1.60
2018-03-19T05:32:05.665Z,-1.60
2018-03-19T05:34:33.327Z,-1.60
2018-03-19T05:37:00.908Z,-1.60
2018-03-19T05:39:28.492Z,-1.70
2018-03-19T05:41:56.909Z,-1.60
2018-03-19T05:44:24.488Z,-1.60
2018-03-19T05:46:52.145Z,-1.60
2018-03-19T05:49:19.697Z,-1.60
2018-03-19T05:51:47.359Z,-1.60
2018-03-19T05:54:14.930Z,-1.60
2018-03-19T05:56:42.533Z,-1.60
2018-03-19T05:59:10.144Z,-1.60
2018-03-19T06:01:37.687Z,-1.50
2018-03-19T06:04:05.276Z,-1.50
2018-03-19T06:06:32.949Z,-1.50
2018-03-19T06:09:00.628Z,-1.50
2018-03-19T06:11:28.262Z,-1.50
2018-03-19T06:13:55.832Z,-1.50
2018-03-19T06:16:23.382Z,-1.50
2018-03-19T06:18:50.950Z,-1.50
2018-03-19T06:21:18.505Z,-1.50
2018-03-19T06:23:46.077Z,-1.50
2018-03-19T06:26:13.734Z,-1.50
2018-03-19T06:28:41.403Z,-1.50
2018-03-19T06:31:08.967Z,-1.40
2018-03-19T06:33:36.523Z,-1.50
2018-03-19T06:36:04.104Z,-1.50
2018-03-19T06:38:31.659Z,-1.50
2018-03-19T06:40:59.229Z,-1.40
2018-03-19T06:43:26.798Z,-1.40
2018-03-19T06:45:55.118Z,-1.40
2018-03-19T06:48:22.711Z,-1.40
2018-03-19T06:50:50.295Z,-1.40
2018-03-19T06:53:18.606Z,-1.40
2018-03-19T06:55:46.207Z,-1.40
2018-03-19T06:58:13.765Z,-1.40
2018-03-19T07:00:41.313Z,-1.40
2018-03-19T07:03:08.873Z,-1.40
2018-03-19T07:05:36.459Z,-1.30
2018-03-19T07:08:04.023Z,-1.40
2018-03-19T07:10:31.667Z,-1.40
2018-03-19T07:12:59.229Z,-1.40
2018-03-19T07:15:26.789Z,-1.40
2018-03-19T07:17:54.347Z,-1.40
2018-03-19T07:20:21.926Z,-1.30
2018-03-19T07:22:49.556Z,-1.30
2018-03-19T07:25:17.114Z,-1.30
2018-03-19T07:27:44.752Z,-1.20
2018-03-19T07:30:12.345Z,-1.30
2018-03-19T07:32:39.894Z,-1.20
2018-03-19T07:35:07.454Z,-1.20
2018-03-19T07:37:35.014Z,-1.20
2018-03-19T07:40:02.584Z,-1.20
2018-03-19T07:42:30.157Z,-1.20
2018-03-19T07:44:57.712Z,-1.20
2018-03-19T07:47:25.306Z,-1.20
2018-03-19T07:49:52.886Z,-1.20
2018-03-19T07:52:21.225Z,-1.10
2018-03-19T07:54:48.900Z,-1.10
2018-03-19T07:57:16.540Z,-1.00
2018-03-19T07:59:44.061Z,-0.90
2018-03-19T08:02:12.382Z,-0.90
2018-03-19T08:04:39.936Z,-0.90
2018-03-19T08:07:07.523Z,-0.90
2018-03-19T08:09:35.081Z,-0.90
2018-03-19T08:12:02.744Z,-0.90
2018-03-19T08:14:32.422Z,-0.80
2018-03-19T08:16:59.991Z,-0.70
2018-03-19T08:19:27.551Z,-0.70
2018-03-19T08:21:55.130Z,-0.70
2018-03-19T08:24:22.682Z,-0.70
2018-03-19T08:27:08.532Z,-0.80
2018-03-19T08:29:36.180Z,-0.80
2018-03-19T08:32:03.725Z,-0.70
2018-03-19T08:34:32.075Z,-0.70
2018-03-19T08:36:59.641Z,-0.80
2018-03-19T08:39:27.194Z,-0.80
2018-03-19T08:41:54.768Z,-0.70
2018-03-19T08:44:22.319Z,-0.70
2018-03-19T08:46:49.999Z,-0.70
2018-03-19T08:49:17.591Z,-0.60
2018-03-19T08:51:45.932Z,-0.40
2018-03-19T08:54:13.598Z,-0.40
2018-03-19T08:56:41.259Z,-0.40
2018-03-19T08:59:08.822Z,-0.40
2018-03-19T09:01:36.380Z,-0.40
2018-03-19T09:04:03.936Z,-0.50
2018-03-19T09:06:31.588Z,-0.30
2018-03-19T09:08:59.169Z,-0.20
2018-03-19T09:11:26.731Z,-0.20
2018-03-19T09:13:54.289Z,-0.30
2018-03-19T09:16:21.851Z,-0.40
2018-03-19T09:18:49.514Z,-0.40
2018-03-19T09:21:17.178Z,-0.40
2018-03-19T09:23:44.843Z,-0.30
2018-03-19T09:26:12.865Z,-0.20
2018-03-19T09:28:40.427Z,-0.20
2018-03-19T09:31:08.004Z,-0.20
2018-03-19T09:33:35.574Z,-0.20
2018-03-19T09:36:03.146Z,-0.20
2018-03-19T09:38:30.707Z,-0.20
2018-03-19T09:40:58.305Z,-0.20
2018-03-19T09:43:25.856Z,-0.30
2018-03-19T09:45:53.430Z,-0.30
2018-03-19T09:48:21.752Z,-0.20
2018-03-19T09:50:49.305Z,-0.20
2018-03-19T09:53:16.896Z,-0.10
2018-03-19T09:55:44.471Z,-0.10
2018-03-19T09:58:12.035Z,0.10
2018-03-19T10:00:39.861Z,0.30
2018-03-19T10:03:07.414Z,0.40
2018-03-19T10:05:34.959Z,0.50
2018-03-19T10:08:03.278Z,0.50
2018-03-19T10:10:30.838Z,0.50
2018-03-19T10:12:58.394Z,0.50
2018-03-19T10:15:25.938Z,0.50
2018-03-19T10:17:53.511Z,0.60
2018-03-19T10:20:21.054Z,0.60
2018-03-19T10:22:48.653Z,0.80
2018-03-19T10:25:16.228Z,0.90
2018-03-19T10:27:43.778Z,1.00
2018-03-19T10:30:11.338Z,1.00
2018-03-19T10:32:38.903Z,1.00
2018-03-19T10:35:06.462Z,1.00
2018-03-19T10:37:34.013Z,0.90
2018-03-19T10:40:01.614Z,0.90
2018-03-19T10:42:29.144Z,0.90
2018-03-19T10:44:56.691Z,1.00
2018-03-19T10:47:24.362Z,1.10
2018-03-19T10:49:51.926Z,1.10
2018-03-19T10:52:19.487Z,1.10
2018-03-19T10:54:47.067Z,1.10
2018-03-19T10:57:14.625Z,1.20
2018-03-19T10:59:42.171Z,1.30
2018-03-19T11:02:15.665Z,1.20
2018-03-19T11:04:48.976Z,1.40
2018-03-19T11:07:22.150Z,1.30
2018-03-19T11:09:49.715Z,1.30
2018-03-19T11:12:17.332Z,1.30
2018-03-19T11:14:45.757Z,1.30
2018-03-19T11:17:13.404Z,1.30
2018-03-19T11:19:40.996Z,1.40
2018-03-19T11:22:08.568Z,1.50
2018-03-19T11:24:36.111Z,1.40
2018-03-19T11:27:03.779Z,1.40
2018-03-19T11:29:31.350Z,1.40
2018-03-19T11:31:58.903Z,1.40
2018-03-19T11:34:26.455Z,1.40
2018-03-19T11:36:54.122Z,1.60
2018-03-19T11:39:21.786Z,1.80
2018-03-19T11:41:49.449Z,2.00
2018-03-19T11:44:17.033Z,2.10
2018-03-19T11:46:44.692Z,2.00
2018-03-19T11:49:12.341Z,1.80
2018-03-19T11:51:40.008Z,1.80
2018-03-19T11:54:07.576Z,1.90
2018-03-19T11:56:35.219Z,1.90
2018-03-19T11:59:02.872Z,1.80
2018-03-19T12:01:30.424Z,1.90
2018-03-19T12:03:57.965Z,1.90
2018-03-19T12:06:25.534Z,1.90
2018-03-19T12:08:53.111Z,1.90
2018-03-19T12:11:20.667Z,2.10
2018-03-19T12:13:48.263Z,2.20
2018-03-19T12:16:16.623Z,2.20
2018-03-19T12:18:44.164Z,2.10
2018-03-19T12:21:11.718Z,2.20
2018-03-19T12:23:39.264Z,2.10
2018-03-19T12:26:06.825Z,2.00
2018-03-19T12:28:34.431Z,2.00
2018-03-19T12:31:01.992Z,2.10
2018-03-19T12:33:29.663Z,2.20
2018-03-19T12:35:57.257Z,2.30
2018-03-19T12:38:25.569Z,2.60
2018-03-19T12:40:53.148Z,2.60
2018-03-19T12:43:20.711Z,2.80
2018-03-19T12:45:48.272Z,3.10
2018-03-19T12:48:15.832Z,3.30
2018-03-19T12:50:43.421Z,3.30
2018-03-19T12:53:10.972Z,3.30
2018-03-19T12:55:38.528Z,3.50
2018-03-19T12:58:06.167Z,3.80
2018-03-19T13:00:33.740Z,3.90
2018-03-19T13:03:01.308Z,3.60
2018-03-19T13:05:28.879Z,3.30
2018-03-19T13:07:56.432Z,3.30
2018-03-19T13:10:23.993Z,3.70
2018-03-19T13:12:51.656Z,4.10
2018-03-19T13:15:19.311Z,4.20
2018-03-19T13:17:46.897Z,3.90
2018-03-19T13:20:14.458Z,3.80
2018-03-19T13:22:43.515Z,3.60
2018-03-19T13:25:11.062Z,3.60
2018-03-19T13:27:38.668Z,3.50
2018-03-19T13:30:06.221Z,3.80
2018-03-19T13:32:33.758Z,3.80
2018-03-19T13:35:01.327Z,3.50
2018-03-19T13:37:28.903Z,3.60
2018-03-19T13:39:56.579Z,3.90
2018-03-19T13:42:24.926Z,4.20
2018-03-19T13:44:52.495Z,4.20
2018-03-19T13:47:20.048Z,4.10
2018-03-19T13:49:47.716Z,3.90
2018-03-19T13:52:15.319Z,3.70
2018-03-19T13:54:42.941Z,3.80
2018-03-19T13:57:10.505Z,3.70
2018-03-19T13:59:38.066Z,3.60
2018-03-19T14:02:05.617Z,3.60
2018-03-19T14:04:33.186Z,3.70
2018-03-19T14:07:00.866Z,3.70
2018-03-19T14:09:29.919Z,4.00
2018-03-19T14:11:57.526Z,4.00
2018-03-19T14:14:25.094Z,4.00
2018-03-19T14:16:53.442Z,3.80
2018-03-19T14:19:21.014Z,3.80
2018-03-19T14:21:48.671Z,3.80
2018-03-19T14:24:16.222Z,3.70
2018-03-19T14:26:43.793Z,3.70
2018-03-19T14:29:11.350Z,3.60
2018-03-19T14:31:39.028Z,3.60
2018-03-19T14:34:06.590Z,3.50
2018-03-19T14:36:34.135Z,3.50
2018-03-19T14:39:01.681Z,3.50
2018-03-19T14:41:29.248Z,3.60
2018-03-19T14:43:56.801Z,3.70
2018-03-19T14:46:24.355Z,3.70
2018-03-19T14:48:51.939Z,3.70
2018-03-19T14:51:19.484Z,3.80
2018-03-19T14:53:47.043Z,3.80
2018-03-19T14:56:14.606Z,3.80
2018-03-19T14:58:42.166Z,3.60
2018-03-19T15:01:09.747Z,3.60
2018-03-19T15:03:37.320Z,3.60
2018-03-19T15:06:04.874Z,3.70
2018-03-19T15:08:32.532Z,3.70
2018-03-19T15:11:00.886Z,3.70
2018-03-19T15:13:28.440Z,3.70
2018-03-19T15:15:56.006Z,3.60
2018-03-19T15:18:23.578Z,3.60
2018-03-19T15:20:51.130Z,3.70
2018-03-19T15:23:18.695Z,3.60
2018-03-19T15:25:46.258Z,3.70
2018-03-19T15:28:13.822Z,3.80
2018-03-19T15:30:41.363Z,3.80
2018-03-19T15:33:08.923Z,3.80
2018-03-19T15:35:36.494Z,3.90
2018-03-19T15:38:04.063Z,3.90
2018-03-19T15:40:31.607Z,3.80
2018-03-19T15:42:59.172Z,3.70
2018-03-19T15:45:26.721Z,3.70
2018-03-19T15:47:54.277Z,3.70
2018-03-19T15:50:21.867Z,3.70
2018-03-19T15:52:49.518Z,3.60
2018-03-19T15:55:17.080Z,3.60
2018-03-19T15:57:45.023Z,3.60
2018-03-19T16:00:12.606Z,3.60
2018-03-19T16:02:40.237Z,3.50
2018-03-19T16:05:07.798Z,3.50
2018-03-19T16:07:35.365Z,3.40
2018-03-19T16:10:02.925Z,3.40
2018-03-19T16:12:30.468Z,3.40
2018-03-19T16:14:58.078Z,3.40
2018-03-19T16:17:25.740Z,3.40
2018-03-19T16:19:53.389Z,3.40
2018-03-19T16:22:20.931Z,3.40
2018-03-19T16:24:48.507Z,3.50
2018-03-19T16:27:16.107Z,3.50
2018-03-19T16:29:43.630Z,3.40
2018-03-19T16:32:11.208Z,3.40
2018-03-19T16:34:38.759Z,3.30
2018-03-19T16:37:06.319Z,3.30
2018-03-19T16:39:33.984Z,3.30
2018-03-19T16:42:01.555Z,3.30
2018-03-19T16:44:29.101Z,3.20
2018-03-19T16:46:56.672Z,3.20
2018-03-19T16:49:24.328Z,3.10
2018-03-19T16:51:51.889Z,3.10
2018-03-19T16:54:19.462Z,3.00
2018-03-19T16:56:47.115Z,3.00
2018-03-19T16:59:14.672Z,3.00
2018-03-19T17:01:42.248Z,3.00
2018-03-19T17:04:09.815Z,3.00
2018-03-19T17:06:37.455Z,3.00
2018-03-19T17:09:05.113Z,3.00
2018-03-19T17:11:32.658Z,2.90
2018-03-19T17:14:00.341Z,2.90
2018-03-19T17:16:27.912Z,2.90
2018-03-19T17:18:55.579Z,2.90
2018-03-19T17:21:23.909Z,2.80
2018-03-19T17:23:51.472Z,2.80
2018-03-19T17:26:19.037Z,2.80
2018-03-19T17:28:46.591Z,2.80
2018-03-19T17:31:14.168Z,2.70
2018-03-19T17:33:41.724Z,2.70
2018-03-19T17:36:09.294Z,2.70
2018-03-19T17:38:36.970Z,2.60
2018-03-19T17:41:04.513Z,2.60
2018-03-19T17:43:32.069Z,2.50
2018-03-19T17:45:59.726Z,2.50
2018-03-19T17:48:27.273Z,2.40
2018-03-19T17:50:54.838Z,2.40
2018-03-19T17:53:22.413Z,2.40
2018-03-19T17:55:49.956Z,2.40
2018-03-19T17:58:17.500Z,2.40
2018-03-19T18:00:45.826Z,2.30
2018-03-19T18:03:13.470Z,2.20
2018-03-19T18:05:41.039Z,2.20
2018-03-19T18:08:08.608Z,2.20
2018-03-19T18:10:36.153Z,2.20
2018-03-19T18:13:03.735Z,2.20
2018-03-19T18:15:31.299Z,2.10
2018-03-19T18:17:58.845Z,2.10
2018-03-19T18:20:26.405Z,2.00
2018-03-19T18:22:53.980Z,2.00
2018-03-19T18:25:21.526Z,1.90
2018-03-19T18:27:49.132Z,1.90
2018-03-19T18:30:17.466Z,1.90
2018-03-19T18:32:45.011Z,1.80
2018-03-19T18:35:12.576Z,1.80
2018-03-19T18:37:40.157Z,1.70
2018-03-19T18:40:07.702Z,1.70
2018-03-19T18:42:35.253Z,1.70
2018-03-19T18:45:02.849Z,1.60
2018-03-19T18:47:30.398Z,1.60
2018-03-19T18:49:57.951Z,1.70
2018-03-19T18:52:25.562Z,1.70
2018-03-19T18:54:53.887Z,1.60
2018-03-19T18:57:21.495Z,1.60
2018-03-19T18:59:49.838Z,1.50
2018-03-19T19:02:17.383Z,1.50
2018-03-19T19:04:44.959Z,1.50
2018-03-19T19:07:12.568Z,1.50
2018-03-19T19:09:40.877Z,1.50
2018-03-19T19:12:08.458Z,1.50
2018-03-19T19:14:36.019Z,1.50
2018-03-19T19:17:03.572Z,1.40
2018-03-19T19:19:31.120Z,1.40
2018-03-19T19:21:58.704Z,1.40
2018-03-19T19:24:26.362Z,1.30
2018-03-19T19:26:53.907Z,1.20
2018-03-19T19:29:21.482Z,1.10
2018-03-19T19:31:49.054Z,1.10
2018-03-19T19:34:16.601Z,1.10
2018-03-19T19:36:44.167Z,1.20
2018-03-19T19:39:11.732Z,1.20
2018-03-19T19:41:39.284Z,1.20
2018-03-19T19:44:06.852Z,1.20
2018-03-19T19:46:34.382Z,1.20
2018-03-19T19:49:01.927Z,1.10
2018-03-19T19:51:29.503Z,1.10
2018-03-19T19:53:57.052Z,1.10
2018-03-19T19:56:24.637Z,1.10
2018-03-19T19:58:52.296Z,1.00
2018-03-19T20:01:19.873Z,1.10
2018-03-19T20:03:47.467Z,1.00
2018-03-19T20:06:15.808Z,1.00
2018-03-19T20:08:43.360Z,0.90
2018-03-19T20:11:11.040Z,0.90
2018-03-19T20:13:38.616Z,0.90
2018-03-19T20:16:06.173Z,0.90
2018-03-19T20:18:34.526Z,0.80
2018-03-19T20:21:02.095Z,0.80
2018-03-19T20:23:29.644Z,0.80
2018-03-19T20:25:57.214Z,0.60
2018-03-19T20:28:24.823Z,0.60
2018-03-19T20:30:53.213Z,0.50
2018-03-19T20:33:20.773Z,0.50
2018-03-19T20:35:48.353Z,0.50
2018-03-19T20:38:15.925Z,0.50
2018-03-19T20:40:43.491Z,0.50
2018-03-19T20:43:11.076Z,0.50
2018-03-19T20:45:38.649Z,0.40
2018-03-19T20:48:07.053Z,0.40
2018-03-19T20:50:34.659Z,0.40
2018-03-19T20:53:02.203Z,0.30
2018-03-19T20:55:29.758Z,0.30
2018-03-19T20:57:57.320Z,0.20
2018-03-19T21:00:24.873Z,0.30
2018-03-19T21:02:52.475Z,0.30
2018-03-19T21:05:20.829Z,0.30
2018-03-19T21:07:48.430Z,0.30
2018-03-19T21:10:16.860Z,0.20
2018-03-19T21:12:44.432Z,0.20
2018-03-19T21:15:11.994Z,0.20
2018-03-19T21:17:39.553Z,0.20
2018-03-19T21:20:07.147Z,0.20
2018-03-19T21:22:34.718Z,0.10
2018-03-19T21:25:03.206Z,0.10
2018-03-19T21:27:31.535Z,0.10
2018-03-19T21:29:59.188Z,0.10
2018-03-19T21:32:26.743Z,0.10
2018-03-19T21:34:54.324Z,0.10
2018-03-19T21:37:21.875Z,0.00
2018-03-19T21:39:49.471Z,0.00
2018-03-19T21:42:17.041Z,0.00
2018-03-19T21:44:44.674Z,-0.10
2018-03-19T21:47:12.355Z,-0.10
2018-03-19T21:49:40.005Z,-0.10
2018-03-19T21:52:07.848Z,-0.20
2018-03-19T21:54:35.427Z,-0.20
2018-03-19T21:57:03.005Z,-0.20
2018-03-19T21:59:30.562Z,-0.20
2018-03-19T22:01:58.160Z,-0.20
2018-03-19T22:04:25.842Z,-0.20
2018-03-19T22:06:53.418Z,-0.20
2018-03-19T22:09:20.973Z,-0.20
2018-03-19T22:11:48.571Z,-0.30
2018-03-19T22:14:16.226Z,-0.30
2018-03-19T22:16:43.800Z,-0.30
2018-03-19T22:19:11.420Z,-0.40
2018-03-19T22:21:39.031Z,-0.40
2018-03-19T22:24:06.596Z,-0.40
2018-03-19T22:26:34.183Z,-0.50
2018-03-19T22:29:02.524Z,-0.50
2018-03-19T22:31:30.194Z,-0.50
2018-03-19T22:33:57.847Z,-0.60
2018-03-19T22:36:26.176Z,-0.60
2018-03-19T22:38:53.821Z,-0.60
2018-03-19T22:41:22.255Z,-0.50
2018-03-19T22:43:49.861Z,-0.50
2018-03-19T22:46:18.260Z,-0.60
2018-03-19T22:48:45.850Z,-0.60
2018-03-19T22:51:13.406Z,-0.60
2018-03-19T22:53:40.994Z,-0.70
2018-03-19T22:56:08.569Z,-0.70
2018-03-19T22:58:36.207Z,-0.80
2018-03-19T23:01:03.761Z,-0.80
2018-03-19T23:03:31.332Z,-0.90
2018-03-19T23:05:58.894Z,-0.90
2018-03-19T23:08:26.557Z,-0.90
2018-03-19T23:10:54.126Z,-1.00
2018-03-19T23:13:21.677Z,-1.00
2018-03-19T23:15:49.236Z,-1.00
2018-03-19T23:18:16.795Z,-1.10
2018-03-19T23:20:44.354Z,-1.10
2018-03-19T23:23:11.908Z,-1.10
2018-03-19T23:25:39.589Z,-1.10
2018-03-19T23:28:07.253Z,-1.10
2018-03-19T23:30:34.810Z,-1.20
2018-03-19T23:33:02.381Z,-1.20
2018-03-19T23:35:29.932Z,-1.20
2018-03-19T23:37:57.485Z,-1.20
2018-03-19T23:40:25.078Z,-1.20
2018-03-19T23:42:52.625Z,-1.30
2018-03-19T23:45:20.181Z,-1.30
2018-03-19T23:47:47.829Z,-1.30
2018-03-19T23:50:15.477Z,-1.30
2018-03-19T23:52:43.040Z,-1.40
2018-03-19T23:55:10.612Z,-1.40
2018-03-19T23:57:38.278Z,-1.40
